sensor_id;sensor_type;location;lat;lon;timestamp;P1;durP1;ratioP1;P2;durP2;ratioP2
50555;SDS011;36508;52.512;13.450;2024-02-21T00:00:51;16.40;;;8.13;;
50555;SDS011;36508;52.512;13.450;2024-02-21T00:03:17;20.07;;;8.63;;
50555;SDS011;36508;52.512;13.450;2024-02-21T00:05:42;15.10;;;9.47;;
50555;SDS011;36508;52.512;13.450;2024-02-21T00:08:08;18.60;;;9.27;;
50555;SDS011;36508;52.512;13.450;2024-02-21T00:10:34;15.20;;;8.70;;
50555;SDS011;36508;52.512;13.450;2024-02-21T00:13:00;15.10;;;7.70;;
50555;SDS011;36508;52.512;13.450;2024-02-21T00:15:26;12.37;;;7.60;;
50555;SDS011;36508;52.512;13.450;2024-02-21T00:17:51;20.43;;;8.37;;
50555;SDS011;36508;52.512;13.450;2024-02-21T00:20:17;10.73;;;7.50;;
50555;SDS011;36508;52.512;13.450;2024-02-21T00:22:43;11.83;;;7.70;;
50555;SDS011;36508;52.512;13.450;2024-02-21T00:25:09;16.40;;;8.77;;
50555;SDS011;36508;52.512;13.450;2024-02-21T00:27:35;17.23;;;8.77;;
50555;SDS011;36508;52.512;13.450;2024-02-21T00:30:01;12.83;;;6.57;;
50555;SDS011;36508;52.512;13.450;2024-02-21T00:32:27;15.77;;;9.00;;
50555;SDS011;36508;52.512;13.450;2024-02-21T00:34:53;18.97;;;8.47;;
50555;SDS011;36508;52.512;13.450;2024-02-21T00:37:19;21.53;;;8.13;;
50555;SDS011;36508;52.512;13.450;2024-02-21T00:39:44;15.37;;;8.50;;
50555;SDS011;36508;52.512;13.450;2024-02-21T00:42:10;14.30;;;7.67;;
50555;SDS011;36508;52.512;13.450;2024-02-21T00:44:35;10.57;;;7.53;;
50555;SDS011;36508;52.512;13.450;2024-02-21T00:47:01;15.73;;;7.87;;
50555;SDS011;36508;52.512;13.450;2024-02-21T00:49:27;18.80;;;8.53;;
50555;SDS011;36508;52.512;13.450;2024-02-21T00:51:52;12.73;;;6.20;;
50555;SDS011;36508;52.512;13.450;2024-02-21T00:54:18;23.23;;;8.50;;
50555;SDS011;36508;52.512;13.450;2024-02-21T00:56:43;12.73;;;6.23;;
50555;SDS011;36508;52.512;13.450;2024-02-21T00:59:09;19.17;;;7.73;;
50555;SDS011;36508;52.512;13.450;2024-02-21T01:01:35;20.40;;;8.00;;
50555;SDS011;36508;52.512;13.450;2024-02-21T01:04:00;12.83;;;7.67;;
50555;SDS011;36508;52.512;13.450;2024-02-21T01:06:26;24.43;;;7.40;;
50555;SDS011;36508;52.512;13.450;2024-02-21T01:08:51;10.43;;;7.13;;
50555;SDS011;36508;52.512;13.450;2024-02-21T01:11:17;15.80;;;7.00;;
50555;SDS011;36508;52.512;13.450;2024-02-21T01:13:43;9.90;;;6.07;;
50555;SDS011;36508;52.512;13.450;2024-02-21T01:16:09;13.13;;;6.40;;
50555;SDS011;36508;52.512;13.450;2024-02-21T01:18:37;14.27;;;5.53;;
50555;SDS011;36508;52.512;13.450;2024-02-21T01:21:03;20.50;;;8.10;;
50555;SDS011;36508;52.512;13.450;2024-02-21T01:23:32;16.20;;;6.70;;
50555;SDS011;36508;52.512;13.450;2024-02-21T01:25:58;15.73;;;7.53;;
50555;SDS011;36508;52.512;13.450;2024-02-21T01:28:24;18.87;;;9.13;;
50555;SDS011;36508;52.512;13.450;2024-02-21T01:30:50;14.63;;;6.60;;
50555;SDS011;36508;52.512;13.450;2024-02-21T01:33:15;10.73;;;5.17;;
50555;SDS011;36508;52.512;13.450;2024-02-21T01:35:41;9.03;;;5.70;;
50555;SDS011;36508;52.512;13.450;2024-02-21T01:38:07;12.50;;;7.63;;
50555;SDS011;36508;52.512;13.450;2024-02-21T01:40:32;27.10;;;6.87;;
50555;SDS011;36508;52.512;13.450;2024-02-21T01:42:58;13.13;;;6.53;;
50555;SDS011;36508;52.512;13.450;2024-02-21T01:45:24;11.40;;;7.00;;
50555;SDS011;36508;52.512;13.450;2024-02-21T01:47:49;8.07;;;5.37;;
50555;SDS011;36508;52.512;13.450;2024-02-21T01:50:15;13.77;;;5.97;;
50555;SDS011;36508;52.512;13.450;2024-02-21T01:52:43;12.23;;;6.20;;
50555;SDS011;36508;52.512;13.450;2024-02-21T01:55:11;8.90;;;5.13;;
50555;SDS011;36508;52.512;13.450;2024-02-21T01:57:39;6.13;;;4.80;;
50555;SDS011;36508;52.512;13.450;2024-02-21T02:00:06;12.93;;;6.83;;
50555;SDS011;36508;52.512;13.450;2024-02-21T02:02:33;13.60;;;6.27;;
50555;SDS011;36508;52.512;13.450;2024-02-21T02:04:59;15.00;;;6.37;;
50555;SDS011;36508;52.512;13.450;2024-02-21T02:07:25;10.83;;;5.90;;
50555;SDS011;36508;52.512;13.450;2024-02-21T02:09:51;15.50;;;8.43;;
50555;SDS011;36508;52.512;13.450;2024-02-21T02:12:17;10.03;;;5.23;;
50555;SDS011;36508;52.512;13.450;2024-02-21T02:14:42;17.27;;;7.03;;
50555;SDS011;36508;52.512;13.450;2024-02-21T02:17:08;9.23;;;5.37;;
50555;SDS011;36508;52.512;13.450;2024-02-21T02:19:34;16.37;;;5.73;;
50555;SDS011;36508;52.512;13.450;2024-02-21T02:22:11;12.43;;;5.67;;
50555;SDS011;36508;52.512;13.450;2024-02-21T02:24:43;13.80;;;5.47;;
50555;SDS011;36508;52.512;13.450;2024-02-21T02:27:09;10.07;;;7.43;;
50555;SDS011;36508;52.512;13.450;2024-02-21T02:29:34;16.47;;;6.20;;
50555;SDS011;36508;52.512;13.450;2024-02-21T02:32:00;9.90;;;5.60;;
50555;SDS011;36508;52.512;13.450;2024-02-21T02:34:26;12.60;;;5.97;;
50555;SDS011;36508;52.512;13.450;2024-02-21T02:36:51;11.60;;;7.33;;
50555;SDS011;36508;52.512;13.450;2024-02-21T02:39:17;15.83;;;6.80;;
50555;SDS011;36508;52.512;13.450;2024-02-21T02:41:42;11.13;;;6.20;;
50555;SDS011;36508;52.512;13.450;2024-02-21T02:44:08;11.53;;;7.87;;
50555;SDS011;36508;52.512;13.450;2024-02-21T02:46:33;11.80;;;6.80;;
50555;SDS011;36508;52.512;13.450;2024-02-21T02:48:59;11.93;;;8.90;;
50555;SDS011;36508;52.512;13.450;2024-02-21T02:51:25;7.03;;;6.33;;
50555;SDS011;36508;52.512;13.450;2024-02-21T02:53:50;14.20;;;7.80;;
50555;SDS011;36508;52.512;13.450;2024-02-21T02:56:16;11.17;;;6.27;;
50555;SDS011;36508;52.512;13.450;2024-02-21T02:58:44;11.83;;;6.40;;
50555;SDS011;36508;52.512;13.450;2024-02-21T03:01:10;18.73;;;9.73;;
50555;SDS011;36508;52.512;13.450;2024-02-21T03:03:35;10.93;;;6.10;;
50555;SDS011;36508;52.512;13.450;2024-02-21T03:06:01;15.90;;;8.20;;
50555;SDS011;36508;52.512;13.450;2024-02-21T03:08:27;14.67;;;7.33;;
50555;SDS011;36508;52.512;13.450;2024-02-21T03:10:52;14.37;;;7.30;;
50555;SDS011;36508;52.512;13.450;2024-02-21T03:13:18;12.90;;;6.60;;
50555;SDS011;36508;52.512;13.450;2024-02-21T03:15:44;8.13;;;6.17;;
50555;SDS011;36508;52.512;13.450;2024-02-21T03:18:09;9.33;;;7.07;;
50555;SDS011;36508;52.512;13.450;2024-02-21T03:20:35;13.33;;;8.17;;
50555;SDS011;36508;52.512;13.450;2024-02-21T03:23:01;18.60;;;8.57;;
50555;SDS011;36508;52.512;13.450;2024-02-21T03:25:26;14.70;;;8.47;;
50555;SDS011;36508;52.512;13.450;2024-02-21T03:27:52;19.73;;;9.77;;
50555;SDS011;36508;52.512;13.450;2024-02-21T03:32:49;11.13;;;7.43;;
50555;SDS011;36508;52.512;13.450;2024-02-21T03:35:15;13.97;;;6.60;;
50555;SDS011;36508;52.512;13.450;2024-02-21T03:37:40;17.70;;;7.10;;
50555;SDS011;36508;52.512;13.450;2024-02-21T03:40:07;13.60;;;8.93;;
50555;SDS011;36508;52.512;13.450;2024-02-21T03:42:34;15.33;;;7.73;;
50555;SDS011;36508;52.512;13.450;2024-02-21T03:44:59;13.50;;;9.93;;
50555;SDS011;36508;52.512;13.450;2024-02-21T03:47:25;13.60;;;8.27;;
50555;SDS011;36508;52.512;13.450;2024-02-21T03:49:50;17.07;;;9.20;;
50555;SDS011;36508;52.512;13.450;2024-02-21T03:52:16;20.97;;;9.40;;
50555;SDS011;36508;52.512;13.450;2024-02-21T03:54:42;17.33;;;9.13;;
50555;SDS011;36508;52.512;13.450;2024-02-21T03:57:07;13.87;;;7.97;;
50555;SDS011;36508;52.512;13.450;2024-02-21T03:59:33;17.70;;;9.10;;
50555;SDS011;36508;52.512;13.450;2024-02-21T04:01:59;17.37;;;8.63;;
50555;SDS011;36508;52.512;13.450;2024-02-21T04:04:25;13.93;;;6.90;;
50555;SDS011;36508;52.512;13.450;2024-02-21T04:06:51;16.07;;;9.13;;
50555;SDS011;36508;52.512;13.450;2024-02-21T04:09:17;14.83;;;9.77;;
50555;SDS011;36508;52.512;13.450;2024-02-21T04:11:43;16.33;;;9.20;;
50555;SDS011;36508;52.512;13.450;2024-02-21T04:14:08;13.77;;;7.20;;
50555;SDS011;36508;52.512;13.450;2024-02-21T04:16:36;12.63;;;8.17;;
50555;SDS011;36508;52.512;13.450;2024-02-21T04:19:01;14.53;;;9.33;;
50555;SDS011;36508;52.512;13.450;2024-02-21T04:21:27;12.63;;;9.60;;
50555;SDS011;36508;52.512;13.450;2024-02-21T04:23:53;23.90;;;11.67;;
50555;SDS011;36508;52.512;13.450;2024-02-21T04:26:18;18.10;;;9.80;;
50555;SDS011;36508;52.512;13.450;2024-02-21T04:28:47;26.53;;;9.23;;
50555;SDS011;36508;52.512;13.450;2024-02-21T04:31:13;23.67;;;9.80;;
50555;SDS011;36508;52.512;13.450;2024-02-21T04:33:38;19.33;;;8.67;;
50555;SDS011;36508;52.512;13.450;2024-02-21T04:36:04;23.13;;;9.93;;
50555;SDS011;36508;52.512;13.450;2024-02-21T04:38:30;12.10;;;9.53;;
50555;SDS011;36508;52.512;13.450;2024-02-21T04:40:56;23.43;;;10.00;;
50555;SDS011;36508;52.512;13.450;2024-02-21T04:43:23;24.17;;;10.00;;
50555;SDS011;36508;52.512;13.450;2024-02-21T04:45:50;12.90;;;8.73;;
50555;SDS011;36508;52.512;13.450;2024-02-21T04:48:16;17.40;;;9.80;;
50555;SDS011;36508;52.512;13.450;2024-02-21T04:50:41;20.00;;;8.07;;
50555;SDS011;36508;52.512;13.450;2024-02-21T04:53:07;16.83;;;9.27;;
50555;SDS011;36508;52.512;13.450;2024-02-21T04:55:33;13.17;;;9.07;;
50555;SDS011;36508;52.512;13.450;2024-02-21T04:57:59;13.30;;;8.80;;
50555;SDS011;36508;52.512;13.450;2024-02-21T05:00:27;14.33;;;8.80;;
50555;SDS011;36508;52.512;13.450;2024-02-21T05:02:52;13.87;;;8.97;;
50555;SDS011;36508;52.512;13.450;2024-02-21T05:05:18;13.93;;;8.67;;
50555;SDS011;36508;52.512;13.450;2024-02-21T05:07:44;15.00;;;7.90;;
50555;SDS011;36508;52.512;13.450;2024-02-21T05:10:10;15.73;;;9.33;;
50555;SDS011;36508;52.512;13.450;2024-02-21T05:12:35;13.30;;;8.50;;
50555;SDS011;36508;52.512;13.450;2024-02-21T05:15:01;14.10;;;8.70;;
50555;SDS011;36508;52.512;13.450;2024-02-21T05:17:28;9.50;;;7.27;;
50555;SDS011;36508;52.512;13.450;2024-02-21T05:19:53;14.73;;;8.33;;
50555;SDS011;36508;52.512;13.450;2024-02-21T05:22:19;20.87;;;9.47;;
50555;SDS011;36508;52.512;13.450;2024-02-21T05:24:45;16.90;;;9.57;;
50555;SDS011;36508;52.512;13.450;2024-02-21T05:27:10;19.93;;;10.87;;
50555;SDS011;36508;52.512;13.450;2024-02-21T05:29:36;12.73;;;9.40;;
50555;SDS011;36508;52.512;13.450;2024-02-21T05:32:01;11.80;;;8.30;;
50555;SDS011;36508;52.512;13.450;2024-02-21T05:34:27;16.57;;;9.07;;
50555;SDS011;36508;52.512;13.450;2024-02-21T05:36:53;15.03;;;9.00;;
50555;SDS011;36508;52.512;13.450;2024-02-21T05:39:19;19.43;;;11.23;;
50555;SDS011;36508;52.512;13.450;2024-02-21T05:41:44;17.07;;;8.70;;
50555;SDS011;36508;52.512;13.450;2024-02-21T05:44:10;23.40;;;8.93;;
50555;SDS011;36508;52.512;13.450;2024-02-21T05:46:36;17.53;;;9.23;;
50555;SDS011;36508;52.512;13.450;2024-02-21T05:49:01;13.33;;;7.90;;
50555;SDS011;36508;52.512;13.450;2024-02-21T05:51:27;17.13;;;9.77;;
50555;SDS011;36508;52.512;13.450;2024-02-21T05:53:52;15.13;;;7.87;;
50555;SDS011;36508;52.512;13.450;2024-02-21T05:56:18;10.83;;;7.50;;
50555;SDS011;36508;52.512;13.450;2024-02-21T05:58:44;13.77;;;9.30;;
50555;SDS011;36508;52.512;13.450;2024-02-21T06:01:10;12.63;;;8.60;;
50555;SDS011;36508;52.512;13.450;2024-02-21T06:03:35;26.67;;;10.20;;
50555;SDS011;36508;52.512;13.450;2024-02-21T06:06:01;12.43;;;7.80;;
50555;SDS011;36508;52.512;13.450;2024-02-21T06:08:28;17.23;;;10.27;;
50555;SDS011;36508;52.512;13.450;2024-02-21T06:10:53;12.27;;;8.70;;
50555;SDS011;36508;52.512;13.450;2024-02-21T06:13:20;16.83;;;9.90;;
50555;SDS011;36508;52.512;13.450;2024-02-21T06:15:46;12.23;;;9.23;;
50555;SDS011;36508;52.512;13.450;2024-02-21T06:18:12;15.60;;;9.10;;
50555;SDS011;36508;52.512;13.450;2024-02-21T06:20:38;11.60;;;9.30;;
50555;SDS011;36508;52.512;13.450;2024-02-21T06:23:05;11.53;;;8.93;;
50555;SDS011;36508;52.512;13.450;2024-02-21T06:25:31;12.17;;;8.30;;
50555;SDS011;36508;52.512;13.450;2024-02-21T06:27:58;10.60;;;9.43;;
50555;SDS011;36508;52.512;13.450;2024-02-21T06:30:23;18.13;;;9.47;;
50555;SDS011;36508;52.512;13.450;2024-02-21T06:32:49;17.67;;;10.80;;
50555;SDS011;36508;52.512;13.450;2024-02-21T06:35:14;17.80;;;8.60;;
50555;SDS011;36508;52.512;13.450;2024-02-21T06:37:40;14.27;;;9.77;;
50555;SDS011;36508;52.512;13.450;2024-02-21T06:40:06;16.90;;;10.20;;
50555;SDS011;36508;52.512;13.450;2024-02-21T06:42:32;15.43;;;8.50;;
50555;SDS011;36508;52.512;13.450;2024-02-21T06:44:57;14.27;;;9.60;;
50555;SDS011;36508;52.512;13.450;2024-02-21T06:47:23;14.10;;;9.63;;
50555;SDS011;36508;52.512;13.450;2024-02-21T06:49:49;16.30;;;9.40;;
50555;SDS011;36508;52.512;13.450;2024-02-21T06:52:18;14.57;;;9.50;;
50555;SDS011;36508;52.512;13.450;2024-02-21T06:54:45;15.57;;;10.07;;
50555;SDS011;36508;52.512;13.450;2024-02-21T06:57:12;11.70;;;9.43;;
50555;SDS011;36508;52.512;13.450;2024-02-21T06:59:39;17.23;;;11.03;;
50555;SDS011;36508;52.512;13.450;2024-02-21T07:02:05;19.33;;;10.03;;
50555;SDS011;36508;52.512;13.450;2024-02-21T07:04:30;10.97;;;9.37;;
50555;SDS011;36508;52.512;13.450;2024-02-21T07:06:56;16.57;;;9.87;;
50555;SDS011;36508;52.512;13.450;2024-02-21T07:09:22;11.37;;;9.93;;
50555;SDS011;36508;52.512;13.450;2024-02-21T07:11:47;11.20;;;9.80;;
50555;SDS011;36508;52.512;13.450;2024-02-21T07:14:14;16.00;;;9.80;;
50555;SDS011;36508;52.512;13.450;2024-02-21T07:16:40;16.80;;;10.30;;
50555;SDS011;36508;52.512;13.450;2024-02-21T07:19:05;15.80;;;9.40;;
50555;SDS011;36508;52.512;13.450;2024-02-21T07:21:31;10.27;;;7.73;;
50555;SDS011;36508;52.512;13.450;2024-02-21T07:23:57;13.30;;;10.70;;
50555;SDS011;36508;52.512;13.450;2024-02-21T07:26:23;9.93;;;8.50;;
50555;SDS011;36508;52.512;13.450;2024-02-21T07:28:48;21.27;;;9.70;;
50555;SDS011;36508;52.512;13.450;2024-02-21T07:31:14;17.07;;;9.10;;
50555;SDS011;36508;52.512;13.450;2024-02-21T07:33:40;16.97;;;11.17;;
50555;SDS011;36508;52.512;13.450;2024-02-21T07:36:10;15.97;;;9.50;;
50555;SDS011;36508;52.512;13.450;2024-02-21T07:38:36;10.47;;;8.93;;
50555;SDS011;36508;52.512;13.450;2024-02-21T07:41:03;11.63;;;9.27;;
50555;SDS011;36508;52.512;13.450;2024-02-21T07:43:29;17.57;;;10.03;;
50555;SDS011;36508;52.512;13.450;2024-02-21T07:45:55;12.80;;;8.87;;
50555;SDS011;36508;52.512;13.450;2024-02-21T07:48:21;15.03;;;9.00;;
50555;SDS011;36508;52.512;13.450;2024-02-21T07:50:49;12.20;;;10.27;;
50555;SDS011;36508;52.512;13.450;2024-02-21T07:53:15;12.40;;;8.20;;
50555;SDS011;36508;52.512;13.450;2024-02-21T07:55:41;16.47;;;10.53;;
50555;SDS011;36508;52.512;13.450;2024-02-21T07:58:07;14.30;;;9.30;;
50555;SDS011;36508;52.512;13.450;2024-02-21T08:00:33;12.30;;;8.87;;
50555;SDS011;36508;52.512;13.450;2024-02-21T08:02:58;11.63;;;9.57;;
50555;SDS011;36508;52.512;13.450;2024-02-21T08:05:24;13.50;;;9.70;;
50555;SDS011;36508;52.512;13.450;2024-02-21T08:07:49;16.07;;;8.57;;
50555;SDS011;36508;52.512;13.450;2024-02-21T08:10:15;16.00;;;8.73;;
50555;SDS011;36508;52.512;13.450;2024-02-21T08:12:41;15.73;;;8.87;;
50555;SDS011;36508;52.512;13.450;2024-02-21T08:15:06;12.10;;;9.10;;
50555;SDS011;36508;52.512;13.450;2024-02-21T08:17:35;17.77;;;7.60;;
50555;SDS011;36508;52.512;13.450;2024-02-21T08:20:01;13.30;;;10.70;;
50555;SDS011;36508;52.512;13.450;2024-02-21T08:22:28;12.80;;;9.13;;
50555;SDS011;36508;52.512;13.450;2024-02-21T08:24:53;17.03;;;11.20;;
50555;SDS011;36508;52.512;13.450;2024-02-21T08:27:19;14.17;;;9.47;;
50555;SDS011;36508;52.512;13.450;2024-02-21T08:29:45;13.30;;;9.03;;
50555;SDS011;36508;52.512;13.450;2024-02-21T08:32:10;11.07;;;9.57;;
50555;SDS011;36508;52.512;13.450;2024-02-21T08:34:36;11.30;;;8.50;;
50555;SDS011;36508;52.512;13.450;2024-02-21T08:37:01;13.40;;;12.03;;
50555;SDS011;36508;52.512;13.450;2024-02-21T08:39:27;15.97;;;10.27;;
50555;SDS011;36508;52.512;13.450;2024-02-21T08:41:55;10.37;;;8.50;;
50555;SDS011;36508;52.512;13.450;2024-02-21T08:44:25;12.50;;;8.63;;
50555;SDS011;36508;52.512;13.450;2024-02-21T08:46:52;11.37;;;9.33;;
50555;SDS011;36508;52.512;13.450;2024-02-21T08:49:18;15.10;;;9.07;;
50555;SDS011;36508;52.512;13.450;2024-02-21T08:51:44;23.53;;;10.70;;
50555;SDS011;36508;52.512;13.450;2024-02-21T08:54:11;19.20;;;11.07;;
50555;SDS011;36508;52.512;13.450;2024-02-21T08:56:36;20.47;;;11.60;;
50555;SDS011;36508;52.512;13.450;2024-02-21T08:59:02;12.40;;;8.63;;
50555;SDS011;36508;52.512;13.450;2024-02-21T09:01:28;23.30;;;10.90;;
50555;SDS011;36508;52.512;13.450;2024-02-21T09:03:54;17.00;;;10.33;;
50555;SDS011;36508;52.512;13.450;2024-02-21T09:06:21;17.13;;;11.00;;
50555;SDS011;36508;52.512;13.450;2024-02-21T09:13:51;11.93;;;10.60;;
50555;SDS011;36508;52.512;13.450;2024-02-21T09:16:16;18.20;;;11.30;;
50555;SDS011;36508;52.512;13.450;2024-02-21T09:18:42;12.30;;;10.93;;
50555;SDS011;36508;52.512;13.450;2024-02-21T09:21:08;18.33;;;9.93;;
50555;SDS011;36508;52.512;13.450;2024-02-21T09:23:33;21.17;;;11.27;;
50555;SDS011;36508;52.512;13.450;2024-02-21T09:25:59;11.87;;;10.60;;
50555;SDS011;36508;52.512;13.450;2024-02-21T09:28:28;13.13;;;11.93;;
50555;SDS011;36508;52.512;13.450;2024-02-21T09:30:54;17.73;;;11.87;;
50555;SDS011;36508;52.512;13.450;2024-02-21T09:33:19;20.77;;;11.57;;
50555;SDS011;36508;52.512;13.450;2024-02-21T09:35:45;15.57;;;12.10;;
50555;SDS011;36508;52.512;13.450;2024-02-21T09:38:12;21.93;;;12.43;;
50555;SDS011;36508;52.512;13.450;2024-02-21T09:40:38;13.53;;;12.03;;
50555;SDS011;36508;52.512;13.450;2024-02-21T09:43:05;18.03;;;13.33;;
50555;SDS011;36508;52.512;13.450;2024-02-21T09:45:34;13.67;;;12.43;;
50555;SDS011;36508;52.512;13.450;2024-02-21T09:50:55;13.73;;;12.33;;
50555;SDS011;36508;52.512;13.450;2024-02-21T09:53:24;12.90;;;9.87;;
50555;SDS011;36508;52.512;13.450;2024-02-21T09:55:50;12.57;;;8.67;;
50555;SDS011;36508;52.512;13.450;2024-02-21T09:58:16;17.50;;;12.17;;
50555;SDS011;36508;52.512;13.450;2024-02-21T10:00:42;13.10;;;11.70;;
50555;SDS011;36508;52.512;13.450;2024-02-21T10:03:08;14.77;;;11.87;;
50555;SDS011;36508;52.512;13.450;2024-02-21T10:05:36;18.67;;;11.13;;
50555;SDS011;36508;52.512;13.450;2024-02-21T10:08:03;13.63;;;10.40;;
50555;SDS011;36508;52.512;13.450;2024-02-21T10:10:29;12.83;;;11.83;;
50555;SDS011;36508;52.512;13.450;2024-02-21T10:12:55;14.53;;;10.00;;
50555;SDS011;36508;52.512;13.450;2024-02-21T10:15:22;11.67;;;10.33;;
50555;SDS011;36508;52.512;13.450;2024-02-21T10:17:57;14.57;;;11.63;;
50555;SDS011;36508;52.512;13.450;2024-02-21T10:20:24;17.60;;;13.30;;
50555;SDS011;36508;52.512;13.450;2024-02-21T10:23:00;17.90;;;10.30;;
50555;SDS011;36508;52.512;13.450;2024-02-21T10:25:28;18.70;;;11.80;;
50555;SDS011;36508;52.512;13.450;2024-02-21T10:27:54;14.43;;;11.17;;
50555;SDS011;36508;52.512;13.450;2024-02-21T10:30:19;14.50;;;10.93;;
50555;SDS011;36508;52.512;13.450;2024-02-21T10:32:51;13.33;;;11.37;;
50555;SDS011;36508;52.512;13.450;2024-02-21T10:35:26;14.30;;;10.77;;
50555;SDS011;36508;52.512;13.450;2024-02-21T10:37:59;17.93;;;11.20;;
50555;SDS011;36508;52.512;13.450;2024-02-21T10:40:25;10.60;;;9.60;;
50555;SDS011;36508;52.512;13.450;2024-02-21T10:42:58;13.40;;;9.60;;
50555;SDS011;36508;52.512;13.450;2024-02-21T10:45:34;12.23;;;9.60;;
50555;SDS011;36508;52.512;13.450;2024-02-21T10:48:03;13.03;;;11.87;;
50555;SDS011;36508;52.512;13.450;2024-02-21T10:50:40;11.83;;;10.40;;
50555;SDS011;36508;52.512;13.450;2024-02-21T10:53:39;14.87;;;10.50;;
50555;SDS011;36508;52.512;13.450;2024-02-21T10:56:08;9.80;;;8.77;;
50555;SDS011;36508;52.512;13.450;2024-02-21T10:58:36;14.60;;;10.33;;
50555;SDS011;36508;52.512;13.450;2024-02-21T11:01:03;12.27;;;10.30;;
50555;SDS011;36508;52.512;13.450;2024-02-21T11:03:30;15.03;;;10.53;;
50555;SDS011;36508;52.512;13.450;2024-02-21T11:05:57;11.77;;;9.30;;
50555;SDS011;36508;52.512;13.450;2024-02-21T11:08:23;15.93;;;10.30;;
50555;SDS011;36508;52.512;13.450;2024-02-21T11:10:50;17.40;;;12.10;;
50555;SDS011;36508;52.512;13.450;2024-02-21T11:13:15;14.03;;;10.30;;
50555;SDS011;36508;52.512;13.450;2024-02-21T11:15:41;16.23;;;10.83;;
50555;SDS011;36508;52.512;13.450;2024-02-21T11:18:07;11.07;;;9.90;;
50555;SDS011;36508;52.512;13.450;2024-02-21T11:20:33;11.10;;;9.90;;
50555;SDS011;36508;52.512;13.450;2024-02-21T11:22:59;12.50;;;9.30;;
50555;SDS011;36508;52.512;13.450;2024-02-21T11:25:26;15.10;;;9.47;;
50555;SDS011;36508;52.512;13.450;2024-02-21T11:27:59;12.63;;;9.97;;
50555;SDS011;36508;52.512;13.450;2024-02-21T11:30:32;9.90;;;8.70;;
50555;SDS011;36508;52.512;13.450;2024-02-21T11:33:00;10.20;;;9.20;;
50555;SDS011;36508;52.512;13.450;2024-02-21T11:35:34;14.83;;;10.60;;
50555;SDS011;36508;52.512;13.450;2024-02-21T11:40:38;10.97;;;8.50;;
50555;SDS011;36508;52.512;13.450;2024-02-21T11:43:05;12.93;;;8.43;;
50555;SDS011;36508;52.512;13.450;2024-02-21T11:45:31;13.27;;;8.70;;
50555;SDS011;36508;52.512;13.450;2024-02-21T11:47:57;14.73;;;8.30;;
50555;SDS011;36508;52.512;13.450;2024-02-21T11:50:25;8.73;;;7.80;;
50555;SDS011;36508;52.512;13.450;2024-02-21T11:52:53;8.87;;;7.67;;
50555;SDS011;36508;52.512;13.450;2024-02-21T11:55:20;10.33;;;7.73;;
50555;SDS011;36508;52.512;13.450;2024-02-21T11:57:47;7.73;;;6.90;;
50555;SDS011;36508;52.512;13.450;2024-02-21T12:00:17;7.60;;;6.80;;
50555;SDS011;36508;52.512;13.450;2024-02-21T12:02:47;9.33;;;6.90;;
50555;SDS011;36508;52.512;13.450;2024-02-21T12:05:13;9.10;;;8.20;;
50555;SDS011;36508;52.512;13.450;2024-02-21T12:07:39;7.00;;;6.40;;
50555;SDS011;36508;52.512;13.450;2024-02-21T12:10:15;6.10;;;5.70;;
50555;SDS011;36508;52.512;13.450;2024-02-21T12:12:41;6.27;;;5.70;;
50555;SDS011;36508;52.512;13.450;2024-02-21T12:15:07;7.47;;;5.90;;
50555;SDS011;36508;52.512;13.450;2024-02-21T12:17:33;9.90;;;6.93;;
50555;SDS011;36508;52.512;13.450;2024-02-21T12:20:00;8.13;;;5.90;;
50555;SDS011;36508;52.512;13.450;2024-02-21T12:22:29;8.70;;;6.77;;
50555;SDS011;36508;52.512;13.450;2024-02-21T12:24:57;9.77;;;6.47;;
50555;SDS011;36508;52.512;13.450;2024-02-21T12:27:23;6.87;;;6.20;;
50555;SDS011;36508;52.512;13.450;2024-02-21T12:29:48;9.53;;;6.10;;
50555;SDS011;36508;52.512;13.450;2024-02-21T12:32:14;8.00;;;6.87;;
50555;SDS011;36508;52.512;13.450;2024-02-21T12:34:40;8.40;;;6.37;;
50555;SDS011;36508;52.512;13.450;2024-02-21T12:37:05;5.67;;;5.07;;
50555;SDS011;36508;52.512;13.450;2024-02-21T12:39:32;14.30;;;8.97;;
50555;SDS011;36508;52.512;13.450;2024-02-21T12:41:57;6.37;;;5.87;;
50555;SDS011;36508;52.512;13.450;2024-02-21T12:44:23;7.30;;;6.40;;
50555;SDS011;36508;52.512;13.450;2024-02-21T12:46:49;6.47;;;5.87;;
50555;SDS011;36508;52.512;13.450;2024-02-21T12:49:17;9.33;;;6.13;;
50555;SDS011;36508;52.512;13.450;2024-02-21T12:51:45;6.00;;;5.50;;
50555;SDS011;36508;52.512;13.450;2024-02-21T12:54:12;6.73;;;6.03;;
50555;SDS011;36508;52.512;13.450;2024-02-21T12:56:37;6.33;;;5.80;;
50555;SDS011;36508;52.512;13.450;2024-02-21T12:59:04;7.50;;;5.17;;
50555;SDS011;36508;52.512;13.450;2024-02-21T13:01:34;6.80;;;6.20;;
50555;SDS011;36508;52.512;13.450;2024-02-21T13:04:00;9.20;;;5.87;;
50555;SDS011;36508;52.512;13.450;2024-02-21T13:06:26;6.80;;;5.27;;
50555;SDS011;36508;52.512;13.450;2024-02-21T13:08:53;11.30;;;5.83;;
50555;SDS011;36508;52.512;13.450;2024-02-21T13:11:18;6.60;;;4.90;;
50555;SDS011;36508;52.512;13.450;2024-02-21T13:13:44;6.43;;;5.77;;
50555;SDS011;36508;52.512;13.450;2024-02-21T13:16:10;5.07;;;4.67;;
50555;SDS011;36508;52.512;13.450;2024-02-21T13:18:35;6.20;;;5.60;;
50555;SDS011;36508;52.512;13.450;2024-02-21T13:21:03;5.03;;;4.63;;
50555;SDS011;36508;52.512;13.450;2024-02-21T13:23:29;10.37;;;5.33;;
50555;SDS011;36508;52.512;13.450;2024-02-21T13:25:55;8.50;;;4.50;;
50555;SDS011;36508;52.512;13.450;2024-02-21T13:28:22;7.97;;;5.40;;
50555;SDS011;36508;52.512;13.450;2024-02-21T13:30:48;6.10;;;4.83;;
50555;SDS011;36508;52.512;13.450;2024-02-21T13:33:13;7.10;;;5.83;;
50555;SDS011;36508;52.512;13.450;2024-02-21T13:35:39;5.53;;;4.93;;
50555;SDS011;36508;52.512;13.450;2024-02-21T13:38:04;7.20;;;5.97;;
50555;SDS011;36508;52.512;13.450;2024-02-21T13:40:30;5.57;;;5.10;;
50555;SDS011;36508;52.512;13.450;2024-02-21T13:42:56;7.27;;;5.80;;
50555;SDS011;36508;52.512;13.450;2024-02-21T13:45:21;7.10;;;6.40;;
50555;SDS011;36508;52.512;13.450;2024-02-21T13:47:47;9.93;;;6.03;;
50555;SDS011;36508;52.512;13.450;2024-02-21T13:50:13;6.27;;;5.80;;
50555;SDS011;36508;52.512;13.450;2024-02-21T13:52:39;17.47;;;7.77;;
50555;SDS011;36508;52.512;13.450;2024-02-21T13:55:05;8.93;;;6.33;;
50555;SDS011;36508;52.512;13.450;2024-02-21T13:57:33;7.63;;;5.93;;
50555;SDS011;36508;52.512;13.450;2024-02-21T14:00:02;12.30;;;6.27;;
50555;SDS011;36508;52.512;13.450;2024-02-21T14:02:31;10.40;;;7.13;;
50555;SDS011;36508;52.512;13.450;2024-02-21T14:04:56;6.27;;;5.77;;
50555;SDS011;36508;52.512;13.450;2024-02-21T14:07:22;6.73;;;6.03;;
50555;SDS011;36508;52.512;13.450;2024-02-21T14:09:48;10.30;;;6.27;;
50555;SDS011;36508;52.512;13.450;2024-02-21T14:12:13;8.17;;;7.07;;
50555;SDS011;36508;52.512;13.450;2024-02-21T14:14:41;6.63;;;5.47;;
50555;SDS011;36508;52.512;13.450;2024-02-21T14:17:08;10.40;;;5.63;;
50555;SDS011;36508;52.512;13.450;2024-02-21T14:19:33;9.73;;;7.13;;
50555;SDS011;36508;52.512;13.450;2024-02-21T14:21:59;7.13;;;5.40;;
50555;SDS011;36508;52.512;13.450;2024-02-21T14:24:25;6.33;;;4.80;;
50555;SDS011;36508;52.512;13.450;2024-02-21T14:26:53;9.13;;;6.23;;
50555;SDS011;36508;52.512;13.450;2024-02-21T14:29:20;6.30;;;5.27;;